Ringling, OK

1:23 AM CST on February 28, 2015 (GMT -0600)
Ardmore Municipal | Change Station
CLOSE
Current Station
Airport
Location: Ardmore,
Elevation: 761 ft
Nearby Weather Stations
Active Advisory: Winter Weather Advisory Active Notice: Record Report

Elev 761 ft 34.30 °N, 97.01 °W | Updated 8 minutes ago

Overcast
Overcast
23 °F
Feels Like 14 °F
N
7
Wind Variable Wind from NE

Today
High -- | Low -- °F
--% Chance of Precip.
Yesterday
High -- | Low -- °F
Precip. -- in
7:00 AM 6:25 PM
Waxing Gibbous, 75% visible
Pressure 30.45 in
Visibility 10.0 miles
Clouds Scattered Clouds 1800 ft
Overcast 5000 ft
Windchill 14 °F
Dew Point 20 °F
Humidity 89%
Rainfall 0.00 in
Snow Depth Not available.
UV 0 out of 12
Pollen 1.30 out of 12
Air Quality Not available.
Flu Activity Not available.
METAR KADM 280715Z AUTO 05006KT 10SM SCT018 OVC050 M05/M07 A3045 RMK AO2 T10511067

More Conditions Fewer Conditions

Pressure 30.45 in
Visibility 10.0 miles
Clouds Scattered Clouds 1800 ft
Overcast 5000 ft
Windchill 14 °F
Dew Point 20 °F
Humidity 89%
Rainfall 0.00 in
Snow Depth Not available.
UV 0 out of 12
Pollen 1.30 out of 12
Air Quality Not available.
Flu Activity Not available.
METAR KADM 280715Z AUTO 05006KT 10SM SCT018 OVC050 M05/M07 A3045 RMK AO2 T10511067

More Conditions Fewer Conditions

10-Day Weather Forecast

Almanac

Astronomy

Feb. 28, 2015 Rise Set
Actual Time
Civil Twilight
Nautical Twilight
Astronomical Twilight
Moon
Length of Visible Light
Length of Day
Tomorrow will be .
, % of the Moon is Illuminated

Today's Extremes

State Highs State Lows

Community

WunderPhotos

Upload Photos

1,800,979 photos uploaded!

WunderBlogs® & News

Nearby

Air Quality

  Air Quality AQ Index Pollutant
Not available.

Snow Depth

Station Depth Elevation

Earthquake Activity

City Distance Mag. Time & Date
Minimum magnitude displayed is 2.5.

Coastal Water Temperatures

Place Temperature

Nearby Weather Stations

Winter Weather Advisory
Statement as of 6:01 PM CST on February 27, 2015

... Winter Weather Advisory now in effect until 6 PM CST
Saturday...

The Winter Weather Advisory is now in effect until 6 PM CST
Saturday.

* Timing: very light snow... and perhaps some light freezing
drizzle... will continue through late Saturday afternoon.

* Main impact: around 1 inch of new snow.

* Other impacts: slick and hazardous roads are expected.

Precautionary/preparedness actions...

Be careful if you have to travel. Even small amounts of ice and
snow can make roads and sidewalks slick and dangerous.